Time;durP1;ratioP1;P1;durP2;ratioP2;P2;SDS_P1;SDS_P2;PMS_P1;PMS_P2;Temp;Humidity;BMP_temperature;BMP_pressure;BME280_temperature;BME280_humidity;BME280_pressure;Samples;Min_cycle;Max_cycle;Signal;HPM_P1;HPM_P2
2023/02/28 00:00:10;;;;;;;4.00;2.78;;;2.70;92.70;3.20;99760.00;;;;344426;28;88644;-90
2023/02/28 00:00:22;;;;;;;3.60;2.50;;;2.70;92.80;3.20;99756.00;;;;344752;28;84963;-91
2023/02/28 00:00:34;;;;;;;3.72;2.65;;;2.70;92.70;3.10;99761.00;;;;347203;28;91929;-91
2023/02/28 00:00:46;;;;;;;3.58;2.90;;;2.70;92.70;3.20;99756.00;;;;346385;28;83241;-88
2023/02/28 00:00:58;;;;;;;4.05;3.20;;;2.70;92.70;3.30;99763.00;;;;346975;28;90599;-90
2023/02/28 00:01:12;;;;;;;4.45;2.85;;;2.70;92.70;3.30;99759.00;;;;343366;28;84717;-91
2023/02/28 00:01:24;;;;;;;4.25;2.58;;;2.70;92.70;3.30;99762.00;;;;344343;28;92187;-90
2023/02/28 00:01:36;;;;;;;3.47;2.67;;;2.70;92.70;3.30;99764.00;;;;347367;28;85541;-90
2023/02/28 00:01:48;;;;;;;3.95;2.58;;;2.80;92.70;3.30;99754.00;;;;344479;28;90581;-91
2023/02/28 00:02:00;;;;;;;4.53;3.03;;;2.80;92.60;3.40;99763.00;;;;346215;28;85384;-91
2023/02/28 00:02:12;;;;;;;3.90;3.13;;;2.80;92.60;3.40;99755.00;;;;345964;28;92219;-91
2023/02/28 00:02:24;;;;;;;4.05;3.05;;;2.80;92.60;3.40;99758.00;;;;345991;28;84113;-91
2023/02/28 00:02:38;;;;;;;4.25;3.10;;;2.80;92.70;3.50;99767.00;;;;344365;28;91595;-90
2023/02/28 00:02:50;;;;;;;4.63;2.97;;;2.80;92.70;3.40;99764.00;;;;349030;27;84312;-91
2023/02/28 00:03:02;;;;;;;4.60;3.05;;;2.80;92.60;3.10;99758.00;;;;346185;28;91471;-91
2023/02/28 00:03:14;;;;;;;4.65;3.22;;;2.80;92.50;3.10;99758.00;;;;347594;28;83423;-91
2023/02/28 00:03:26;;;;;;;4.20;3.10;;;2.80;92.40;3.10;99760.00;;;;342946;28;91235;-91
2023/02/28 00:03:38;;;;;;;4.25;2.88;;;2.80;92.40;3.20;99759.00;;;;348825;27;84909;-91
2023/02/28 00:03:50;;;;;;;4.22;2.60;;;2.80;92.50;3.10;99762.00;;;;346077;28;90844;-89
2023/02/28 00:04:02;;;;;;;4.63;2.80;;;2.80;92.50;3.10;99759.00;;;;346205;28;83698;-91
2023/02/28 00:04:14;;;;;;;5.47;3.05;;;2.80;92.60;3.20;99762.00;;;;347201;28;92220;-90
2023/02/28 00:04:27;;;;;;;5.82;3.65;;;2.80;92.60;3.20;99758.00;;;;347818;28;83584;-91
2023/02/28 00:04:39;;;;;;;5.15;3.50;;;2.70;92.60;3.10;99765.00;;;;347322;28;92036;-91
2023/02/28 00:04:52;;;;;;;4.82;3.40;;;2.80;92.70;3.00;99766.00;;;;346290;28;84861;-91
2023/02/28 00:05:05;;;;;;;4.63;3.15;;;2.80;92.70;3.00;99767.00;;;;345235;28;92499;-90
2023/02/28 00:05:21;;;;;;;4.00;3.10;;;2.70;92.60;3.20;99762.00;;;;344729;28;84071;-91
2023/02/28 00:05:33;;;;;;;3.67;2.90;;;2.70;92.70;3.00;99769.00;;;;348607;27;90135;-90
2023/02/28 00:05:45;;;;;;;4.07;3.17;;;2.70;92.70;2.90;99768.00;;;;345033;28;83874;-91
2023/02/28 00:05:57;;;;;;;5.50;3.47;;;2.70;92.70;2.90;99769.00;;;;347418;28;91600;-91
2023/02/28 00:06:09;;;;;;;5.93;3.42;;;2.60;92.70;3.10;99765.00;;;;344757;28;82443;-90
2023/02/28 00:06:21;;;;;;;5.63;3.13;;;2.60;92.80;3.10;99760.00;;;;347452;28;91082;-90
2023/02/28 00:06:33;;;;;;;4.95;2.90;;;2.70;92.90;3.20;99770.00;;;;344745;28;85120;-92
2023/02/28 00:06:45;;;;;;;5.20;2.85;;;2.70;92.90;3.20;99775.00;;;;344545;28;91028;-91
2023/02/28 00:06:57;;;;;;;5.40;2.92;;;2.70;92.90;3.00;99761.00;;;;344809;28;85130;-91
2023/02/28 00:07:09;;;;;;;6.15;3.10;;;2.70;92.80;3.10;99769.00;;;;347279;28;91935;-91
2023/02/28 00:07:21;;;;;;;5.75;3.20;;;2.70;92.80;3.00;99769.00;;;;344792;28;83702;-90
2023/02/28 00:07:33;;;;;;;5.43;3.15;;;2.70;92.80;2.90;99761.00;;;;345720;28;93006;-91
2023/02/28 00:07:46;;;;;;;4.30;2.95;;;2.60;92.70;2.80;99764.00;;;;347566;28;83503;-90
2023/02/28 00:07:58;;;;;;;4.15;2.88;;;2.60;92.70;2.90;99763.00;;;;348752;27;92134;-91
2023/02/28 00:08:10;;;;;;;4.20;2.92;;;2.60;92.70;3.00;99765.00;;;;343264;28;84092;-91
2023/02/28 00:08:22;;;;;;;4.50;3.00;;;2.60;92.80;3.10;99760.00;;;;347038;28;92047;-90
2023/02/28 00:08:34;;;;;;;5.28;2.92;;;2.60;92.90;3.00;99764.00;;;;344814;28;83371;-91
2023/02/28 00:08:46;;;;;;;5.38;3.25;;;2.60;92.90;2.80;99759.00;;;;345874;28;91069;-91
2023/02/28 00:08:58;;;;;;;4.90;3.30;;;2.60;92.80;2.80;99759.00;;;;343787;28;83707;-90
2023/02/28 00:09:10;;;;;;;6.05;3.15;;;2.60;92.80;2.70;99764.00;;;;348604;27;91078;-91
2023/02/28 00:09:22;;;;;;;6.47;3.42;;;2.50;92.80;2.80;99753.00;;;;344627;28;83410;-91
2023/02/28 00:09:34;;;;;;;6.63;3.35;;;2.50;92.80;2.80;99755.00;;;;345872;28;92598;-91
2023/02/28 00:09:46;;;;;;;5.28;3.08;;;2.50;92.90;2.80;99765.00;;;;346056;28;82560;-90
2023/02/28 00:09:59;;;;;;;5.45;3.20;;;2.50;93.00;2.80;99766.00;;;;348446;27;90912;-91
2023/02/28 00:10:20;;;;;;;4.45;2.97;;;2.50;93.00;2.80;99759.00;;;;344752;28;83719;-91
2023/02/28 00:10:32;;;;;;;3.72;2.78;;;2.50;93.00;2.80;99758.00;;;;348751;27;89390;-91
2023/02/28 00:10:44;;;;;;;4.07;3.05;;;2.50;93.00;2.80;99767.00;;;;344645;28;82520;-90
2023/02/28 00:11:01;;;;;;;4.10;2.92;;;2.50;93.00;2.80;99772.00;;;;344489;28;90811;-91
2023/02/28 00:11:14;;;;;;;3.75;2.92;;;2.40;93.00;2.70;99764.00;;;;342116;28;82414;-91
2023/02/28 00:11:26;;;;;;;4.35;3.10;;;2.40;93.00;2.60;99766.00;;;;345329;28;90614;-91
2023/02/28 00:11:38;;;;;;;6.32;3.58;;;2.40;93.10;2.70;99754.00;;;;344518;28;83863;-91
2023/02/28 00:11:50;;;;;;;7.05;3.72;;;2.40;93.10;2.80;99756.00;;;;348543;27;90093;-90
2023/02/28 00:12:09;;;;;;;6.07;3.92;;;2.40;93.10;2.70;99759.00;;;;346295;28;83741;-90
2023/02/28 00:12:21;;;;;;;5.55;3.40;;;2.40;93.10;2.80;99765.00;;;;347392;28;91314;-91
2023/02/28 00:12:35;;;;;;;5.72;3.35;;;2.40;93.10;2.70;99767.00;;;;347463;28;83819;-90
2023/02/28 00:12:54;;;;;;;6.05;3.50;;;2.40;93.20;2.80;99769.00;;;;345621;28;91858;-91
2023/02/28 00:13:06;;;;;;;5.00;3.28;;;2.30;93.20;2.70;99764.00;;;;344523;28;83936;-91
2023/02/28 00:13:18;;;;;;;5.82;3.40;;;2.30;93.20;2.80;99754.00;;;;348292;27;91463;-90
2023/02/28 00:13:30;;;;;;;6.45;3.40;;;2.30;93.30;2.70;99768.00;;;;347268;28;84719;-91
2023/02/28 00:13:48;;;;;;;5.90;3.03;;;2.30;93.30;2.70;99760.00;;;;346627;28;87968;-91
2023/02/28 00:14:00;;;;;;;5.55;3.10;;;2.30;93.30;2.80;99755.00;;;;346033;28;85089;-91
2023/02/28 00:14:12;;;;;;;5.97;3.05;;;2.30;93.30;2.60;99770.00;;;;347145;28;90183;-91
2023/02/28 00:14:24;;;;;;;5.82;3.13;;;2.30;93.30;2.60;99777.00;;;;346121;28;84446;-91
2023/02/28 00:14:36;;;;;;;4.93;3.30;;;2.30;93.30;2.50;99769.00;;;;346858;28;91609;-90
2023/02/28 00:14:49;;;;;;;6.10;3.65;;;2.20;93.20;2.50;99771.00;;;;347207;28;83050;-90
2023/02/28 00:15:02;;;;;;;6.10;3.78;;;2.20;93.30;2.50;99760.00;;;;345638;28;90846;-90
2023/02/28 00:15:14;;;;;;;5.20;3.42;;;2.20;93.30;2.50;99763.00;;;;349084;27;84084;-91
2023/02/28 00:15:26;;;;;;;5.05;3.30;;;2.20;93.40;2.50;99767.00;;;;347461;28;92128;-91
2023/02/28 00:15:38;;;;;;;4.88;3.20;;;2.20;93.40;2.70;99773.00;;;;347740;27;82729;-89
2023/02/28 00:16:02;;;;;;;5.05;3.22;;;2.20;93.40;2.50;99767.00;;;;346306;28;88661;-91
2023/02/28 00:16:20;;;;;;;3.65;3.08;;;2.20;93.50;2.60;99764.00;;;;347451;28;83137;-90
2023/02/28 00:16:32;;;;;;;4.32;3.05;;;2.20;93.50;2.50;99761.00;;;;344299;28;92665;-91
2023/02/28 00:16:44;;;;;;;4.45;2.85;;;2.20;93.50;2.50;99766.00;;;;347799;28;82476;-90
2023/02/28 00:16:56;;;;;;;4.88;3.05;;;2.10;93.50;2.50;99765.00;;;;345766;28;91262;-91
2023/02/28 00:17:07;;;;;;;5.53;3.25;;;2.20;93.50;2.50;99768.00;;;;348866;27;84024;-90
2023/02/28 00:17:20;;;;;;;5.88;3.63;;;2.10;93.50;2.60;99760.00;;;;344570;28;90732;-90
2023/02/28 00:17:32;;;;;;;5.68;3.45;;;2.10;93.50;2.60;99760.00;;;;345859;28;82416;-90
2023/02/28 00:17:44;;;;;;;5.05;3.20;;;2.10;93.50;2.60;99768.00;;;;345582;28;92251;-91
2023/02/28 00:17:56;;;;;;;5.30;3.33;;;2.20;93.60;2.70;99765.00;;;;344763;28;83505;-90
2023/02/28 00:18:08;;;;;;;6.25;4.38;;;2.10;93.50;2.70;99769.00;;;;345619;28;90969;-89
2023/02/28 00:18:20;;;;;;;6.55;4.38;;;2.20;93.60;2.60;99765.00;;;;344584;28;83806;-89
2023/02/28 00:18:32;;;;;;;6.97;3.75;;;2.20;93.60;2.50;99769.00;;;;343964;28;92899;-91
2023/02/28 00:18:47;;;;;;;6.00;3.47;;;2.10;93.60;2.60;99765.00;;;;343051;28;83653;-91
2023/02/28 00:18:59;;;;;;;5.57;3.38;;;2.10;93.60;2.50;99772.00;;;;345587;28;88521;-90
2023/02/28 00:19:13;;;;;;;5.28;3.05;;;2.10;93.60;2.40;99765.00;;;;345986;28;82454;-91
2023/02/28 00:19:25;;;;;;;4.90;3.15;;;2.10;93.60;2.40;99770.00;;;;345393;28;90873;-91
2023/02/28 00:19:37;;;;;;;4.00;3.05;;;2.10;93.60;2.50;99766.00;;;;345804;28;84140;-91
2023/02/28 00:19:49;;;;;;;4.03;2.80;;;2.10;93.60;2.60;99759.00;;;;348083;27;91179;-91
2023/02/28 00:20:01;;;;;;;4.80;3.08;;;2.10;93.90;2.50;99767.00;;;;347053;27;83536;-91
2023/02/28 00:20:13;;;;;;;4.72;3.30;;;2.10;93.70;2.70;99766.00;;;;346795;28;92050;-91
2023/02/28 00:20:26;;;;;;;4.68;3.35;;;2.10;93.70;2.60;99771.00;;;;347263;28;83372;-90
2023/02/28 00:20:38;;;;;;;4.25;2.92;;;2.10;93.70;2.70;99760.00;;;;345509;28;90049;-89
2023/02/28 00:20:50;;;;;;;4.18;3.00;;;2.10;93.70;2.80;99762.00;;;;347133;28;84688;-91
2023/02/28 00:21:02;;;;;;;4.88;3.38;;;2.20;93.80;2.60;99764.00;;;;347064;28;91692;-90
2023/02/28 00:21:15;;;;;;;4.28;3.33;;;2.20;93.70;2.50;99764.00;;;;345937;28;83341;-91
2023/02/28 00:21:27;;;;;;;4.88;3.75;;;2.20;93.60;2.70;99764.00;;;;345336;28;91127;-91
2023/02/28 00:21:40;;;;;;;5.72;3.95;;;2.20;93.60;2.60;99776.00;;;;346954;28;83478;-91
2023/02/28 00:21:52;;;;;;;5.75;3.83;;;2.10;93.60;2.50;99763.00;;;;347107;28;90727;-92
2023/02/28 00:22:04;;;;;;;5.13;3.25;;;2.10;93.50;2.60;99762.00;;;;347354;28;83229;-90
2023/02/28 00:22:17;;;;;;;5.25;3.10;;;2.10;93.60;2.60;99772.00;;;;345682;28;90730;-91
2023/02/28 00:22:29;;;;;;;4.90;2.95;;;2.10;93.90;2.50;99768.00;;;;347498;28;83298;-91
2023/02/28 00:22:43;;;;;;;5.35;3.10;;;2.10;93.60;2.50;99776.00;;;;348399;27;90530;-90
2023/02/28 00:22:55;;;;;;;5.72;3.67;;;2.10;93.60;2.40;99759.00;;;;347666;28;83062;-90
2023/02/28 00:23:08;;;;;;;5.45;3.50;;;2.10;93.60;2.50;99783.00;;;;345775;28;90461;-91
2023/02/28 00:23:20;;;;;;;4.28;2.95;;;2.10;93.60;2.60;99774.00;;;;348537;27;83352;-90
2023/02/28 00:23:32;;;;;;;5.15;2.97;;;2.10;93.60;2.50;99768.00;;;;343063;28;89493;-90
2023/02/28 00:23:44;;;;;;;5.70;3.30;;;2.10;93.70;2.40;99766.00;;;;343361;28;84517;-91
2023/02/28 00:23:56;;;;;;;5.57;3.30;;;2.10;93.70;2.40;99763.00;;;;347197;28;90448;-90
2023/02/28 00:24:08;;;;;;;5.70;3.22;;;2.10;93.70;2.50;99772.00;;;;350368;27;84982;-91
2023/02/28 00:24:20;;;;;;;6.55;3.30;;;2.00;93.70;2.40;99772.00;;;;347169;28;90848;-90
2023/02/28 00:24:32;;;;;;;5.57;3.00;;;2.10;93.70;2.50;99760.00;;;;347456;28;83142;-91
2023/02/28 00:24:44;;;;;;;4.28;2.83;;;2.10;93.70;2.50;99764.00;;;;344291;28;89282;-91
2023/02/28 00:24:56;;;;;;;4.30;3.20;;;2.00;93.70;2.60;99768.00;;;;350261;27;84645;-91
2023/02/28 00:25:09;;;;;;;4.43;3.35;;;2.00;93.70;2.40;99759.00;;;;348593;27;89917;-92
2023/02/28 00:25:23;;;;;;;5.50;3.30;;;2.00;93.70;2.60;99769.00;;;;348414;27;82605;-91
2023/02/28 00:25:35;;;;;;;5.75;3.08;;;2.00;93.70;2.60;99767.00;;;;345784;28;90314;-91
2023/02/28 00:25:47;;;;;;;5.38;2.97;;;2.00;93.70;2.50;99767.00;;;;347664;28;83636;-91
2023/02/28 00:25:59;;;;;;;4.82;2.97;;;2.10;93.80;2.50;99774.00;;;;346957;28;88379;-90
2023/02/28 00:26:11;;;;;;;5.70;3.38;;;2.00;93.70;2.50;99780.00;;;;347526;28;83290;-90
2023/02/28 00:26:23;;;;;;;5.13;3.05;;;2.00;93.70;2.50;99774.00;;;;348311;27;91778;-91
2023/02/28 00:26:35;;;;;;;5.13;3.10;;;2.10;93.80;2.60;99777.00;;;;349858;27;84091;-91
2023/02/28 00:26:47;;;;;;;4.25;2.92;;;2.00;93.80;2.50;99773.00;;;;344556;28;90419;-92
2023/02/28 00:26:59;;;;;;;4.35;3.13;;;2.10;93.80;2.40;99767.00;;;;347410;28;84960;-91
2023/02/28 00:27:11;;;;;;;4.05;3.00;;;2.10;93.80;2.30;99765.00;;;;347217;28;90972;-91
2023/02/28 00:27:23;;;;;;;4.40;2.88;;;2.00;93.80;2.30;99771.00;;;;344863;28;83713;-91
2023/02/28 00:27:36;;;;;;;4.78;3.13;;;2.00;93.70;2.40;99769.00;;;;348089;27;89803;-91
2023/02/28 00:27:48;;;;;;;4.28;3.13;;;2.00;93.80;2.40;99763.00;;;;348942;27;84987;-90
2023/02/28 00:28:00;;;;;;;3.95;3.20;;;2.00;93.80;2.40;99764.00;;;;348425;27;92420;-91
2023/02/28 00:28:12;;;;;;;4.32;3.28;;;2.00;93.80;2.30;99768.00;;;;346007;28;83046;-91
2023/02/28 00:28:24;;;;;;;4.70;3.47;;;2.00;93.90;2.30;99768.00;;;;345848;28;90757;-90
2023/02/28 00:28:36;;;;;;;4.72;3.50;;;2.00;93.90;2.30;99783.00;;;;347754;28;82639;-90
2023/02/28 00:28:48;;;;;;;4.10;3.28;;;2.00;93.90;2.30;99772.00;;;;345698;28;92001;-90
2023/02/28 00:29:00;;;;;;;5.00;3.63;;;2.00;93.80;2.40;99775.00;;;;344518;28;82747;-91
2023/02/28 00:29:12;;;;;;;5.05;3.42;;;2.00;93.90;2.40;99784.00;;;;349944;27;90079;-90
2023/02/28 00:29:24;;;;;;;5.63;3.38;;;2.00;93.90;2.30;99774.00;;;;344690;28;84226;-91
2023/02/28 00:29:36;;;;;;;4.85;2.75;;;2.00;94.00;2.30;99781.00;;;;349876;27;90443;-91
2023/02/28 00:29:48;;;;;;;4.90;2.88;;;2.00;94.00;2.40;99777.00;;;;350763;27;83260;-90
2023/02/28 00:30:00;;;;;;;4.82;3.00;;;2.00;94.00;2.40;99776.00;;;;347457;28;87986;-90
2023/02/28 00:30:15;;;;;;;4.75;3.05;;;2.00;94.00;2.50;99780.00;;;;345333;28;83960;-91
2023/02/28 00:30:27;;;;;;;4.55;3.13;;;1.90;93.90;2.50;99778.00;;;;346641;28;87536;-91
2023/02/28 00:30:39;;;;;;;4.94;3.14;;;2.00;94.00;2.50;99776.00;;;;347685;28;82640;-90
2023/02/28 00:30:51;;;;;;;4.90;3.00;;;2.00;93.90;2.30;99780.00;;;;345271;28;90972;-89
2023/02/28 00:31:04;;;;;;;4.88;3.00;;;2.00;94.00;2.40;99778.00;;;;347469;28;82482;-91
2023/02/28 00:31:16;;;;;;;5.00;3.80;;;2.00;93.90;2.30;99776.00;;;;345683;28;87794;-89
2023/02/28 00:31:28;;;;;;;4.90;3.83;;;1.90;93.90;2.40;99775.00;;;;348719;28;82313;-90
2023/02/28 00:31:41;;;;;;;4.07;3.20;;;1.90;93.90;2.50;99776.00;;;;349742;27;87877;-90
2023/02/28 00:31:53;;;;;;;3.78;3.17;;;1.90;93.90;2.50;99778.00;;;;348403;28;82535;-90
2023/02/28 00:32:05;;;;;;;4.05;3.20;;;1.90;93.90;2.40;99788.00;;;;348591;28;86921;-90
2023/02/28 00:32:18;;;;;;;5.10;3.25;;;1.90;94.00;2.50;99783.00;;;;348398;28;83375;-91
2023/02/28 00:32:30;;;;;;;4.80;3.03;;;2.00;94.00;2.40;99780.00;;;;345442;28;88466;-89
2023/02/28 00:32:42;;;;;;;4.15;2.75;;;1.90;93.90;2.50;99785.00;;;;348753;28;82276;-90
2023/02/28 00:32:54;;;;;;;4.22;3.03;;;2.00;93.90;2.40;99779.00;;;;346571;28;90398;-90
2023/02/28 00:33:06;;;;;;;4.80;3.38;;;2.00;94.00;2.40;99778.00;;;;345472;28;82319;-90
2023/02/28 00:33:18;;;;;;;5.30;3.40;;;1.90;93.90;2.40;99775.00;;;;349251;27;88652;-90
2023/02/28 00:33:30;;;;;;;5.80;3.50;;;1.90;93.90;2.50;99777.00;;;;349397;27;83260;-90
2023/02/28 00:33:42;;;;;;;5.40;3.33;;;1.90;93.90;2.40;99784.00;;;;349014;27;89471;-92
2023/02/28 00:33:54;;;;;;;5.10;3.13;;;2.00;93.90;2.50;99788.00;;;;349853;27;83315;-91
2023/02/28 00:34:06;;;;;;;4.15;2.70;;;2.00;93.90;2.50;99783.00;;;;349191;27;91012;-90
2023/02/28 00:34:18;;;;;;;4.55;3.70;;;1.90;93.90;2.40;99776.00;;;;346642;28;83412;-91
2023/02/28 00:34:30;;;;;;;4.68;3.72;;;1.90;93.90;2.40;99776.00;;;;347181;28;88666;-91
2023/02/28 00:34:42;;;;;;;5.13;3.15;;;1.90;94.00;2.40;99774.00;;;;348582;27;83343;-90
2023/02/28 00:34:54;;;;;;;4.97;2.80;;;2.00;94.00;2.30;99783.00;;;;345517;28;92324;-90
2023/02/28 00:35:07;;;;;;;5.40;3.50;;;1.90;94.00;2.30;99782.00;;;;350454;27;82360;-90
2023/02/28 00:35:19;;;;;;;5.22;3.65;;;1.90;94.00;2.30;99777.00;;;;346955;28;90942;-90
2023/02/28 00:35:31;;;;;;;4.93;3.35;;;1.90;94.00;2.40;99775.00;;;;347630;28;82462;-90
2023/02/28 00:35:46;;;;;;;4.07;2.88;;;1.90;94.00;2.30;99779.00;;;;349367;27;90808;-91
2023/02/28 00:36:03;;;;;;;4.03;2.97;;;1.90;94.00;2.30;99777.00;;;;347719;28;83858;-91
2023/02/28 00:36:15;;;;;;;4.65;3.45;;;1.90;94.10;2.30;99771.00;;;;347308;28;91026;-91
2023/02/28 00:36:27;;;;;;;5.63;3.75;;;1.90;94.20;2.40;99776.00;;;;347569;28;83447;-91
2023/02/28 00:36:40;;;;;;;5.40;3.28;;;1.90;94.20;2.40;99770.00;;;;347060;28;91711;-90
2023/02/28 00:36:52;;;;;;;4.53;3.20;;;1.90;94.20;2.30;99774.00;;;;344947;28;83430;-91
2023/02/28 00:37:06;;;;;;;5.60;3.50;;;1.90;94.10;2.30;99773.00;;;;346923;28;90814;-92
2023/02/28 00:37:18;;;;;;;6.75;3.65;;;1.90;94.00;2.20;99774.00;;;;347148;28;83772;-91
2023/02/28 00:37:30;;;;;;;6.20;3.58;;;1.80;94.00;2.20;99781.00;;;;349908;27;91410;-90
2023/02/28 00:37:42;;;;;;;4.75;3.17;;;1.80;94.00;2.30;99780.00;;;;348564;27;83419;-91
2023/02/28 00:37:54;;;;;;;4.80;3.15;;;1.80;94.00;2.20;99777.00;;;;345558;28;91937;-90
2023/02/28 00:38:06;;;;;;;5.85;3.47;;;1.80;94.10;2.20;99771.00;;;;345959;28;83112;-91
2023/02/28 00:38:18;;;;;;;5.20;3.38;;;1.80;94.10;2.20;99784.00;;;;346941;28;91163;-91
2023/02/28 00:38:30;;;;;;;5.05;3.30;;;1.80;94.20;2.20;99774.00;;;;346237;28;82388;-91
2023/02/28 00:38:42;;;;;;;5.20;3.33;;;1.80;94.20;2.20;99778.00;;;;345445;28;91929;-91
2023/02/28 00:38:54;;;;;;;4.32;2.92;;;1.80;94.20;2.30;99777.00;;;;344665;28;84588;-91
2023/02/28 00:39:06;;;;;;;4.05;3.05;;;1.80;94.10;2.20;99772.00;;;;347121;28;90460;-90
2023/02/28 00:39:18;;;;;;;3.72;2.92;;;1.80;94.20;2.30;99784.00;;;;347396;28;83705;-91
2023/02/28 00:39:30;;;;;;;4.07;2.92;;;1.80;94.40;2.20;99779.00;;;;349616;27;92230;-91
2023/02/28 00:39:42;;;;;;;4.18;2.92;;;1.80;94.20;2.30;99772.00;;;;347234;28;84903;-91
2023/02/28 00:39:54;;;;;;;4.20;3.05;;;1.80;94.20;2.40;99773.00;;;;345702;28;88510;-91
2023/02/28 00:40:07;;;;;;;3.80;3.00;;;1.80;94.20;2.40;99768.00;;;;345885;28;83387;-90
2023/02/28 00:40:19;;;;;;;4.25;3.17;;;1.80;94.20;2.40;99781.00;;;;345843;28;90542;-91
2023/02/28 00:40:31;;;;;;;4.65;3.13;;;1.80;94.20;2.30;99772.00;;;;346166;28;84560;-91
2023/02/28 00:40:43;;;;;;;4.55;3.08;;;1.80;94.30;2.20;99778.00;;;;345543;28;90670;-91
2023/02/28 00:40:55;;;;;;;5.35;3.17;;;1.80;94.30;2.30;99784.00;;;;344465;28;83505;-90
2023/02/28 00:41:07;;;;;;;4.75;3.30;;;1.80;94.20;2.30;99782.00;;;;344314;28;92141;-90
2023/02/28 00:41:19;;;;;;;5.30;3.33;;;1.80;94.30;2.30;99771.00;;;;344659;28;83332;-91
2023/02/28 00:41:31;;;;;;;4.97;3.50;;;1.80;94.30;2.30;99778.00;;;;344215;28;89808;-91
2023/02/28 00:41:43;;;;;;;4.63;3.42;;;1.80;94.30;2.20;99771.00;;;;347431;28;82355;-91
2023/02/28 00:41:55;;;;;;;4.60;3.33;;;1.80;94.30;2.30;99770.00;;;;345510;28;89301;-91
2023/02/28 00:42:07;;;;;;;5.05;3.17;;;1.80;94.40;2.20;99780.00;;;;349565;27;83528;-91
2023/02/28 00:42:19;;;;;;;4.95;3.00;;;1.80;94.40;2.30;99782.00;;;;343834;28;91052;-91
2023/02/28 00:42:32;;;;;;;4.50;2.90;;;1.80;94.40;2.50;99785.00;;;;344690;28;82381;-91
2023/02/28 00:42:44;;;;;;;5.75;2.85;;;1.80;94.50;2.40;99776.00;;;;348112;27;89403;-92
2023/02/28 00:42:56;;;;;;;6.38;3.08;;;1.80;94.50;2.50;99772.00;;;;347215;28;84604;-91
2023/02/28 00:43:07;;;;;;;5.80;3.08;;;1.80;94.40;2.40;99765.00;;;;348374;27;93046;-90
2023/02/28 00:43:19;;;;;;;4.40;3.03;;;1.80;94.40;2.50;99776.00;;;;350005;27;84907;-90
2023/02/28 00:43:35;;;;;;;4.05;3.08;;;1.90;94.40;2.50;99777.00;;;;348462;27;89056;-91
2023/02/28 00:43:47;;;;;;;4.13;2.97;;;1.90;94.30;2.40;99776.00;;;;348557;27;84959;-91
2023/02/28 00:43:59;;;;;;;5.20;3.38;;;1.90;94.30;2.40;99785.00;;;;348227;27;91271;-91
2023/02/28 00:44:11;;;;;;;5.20;3.53;;;1.90;94.30;2.30;99775.00;;;;344504;28;83090;-91
2023/02/28 00:44:23;;;;;;;4.28;3.20;;;1.90;94.20;2.40;99775.00;;;;346554;28;91445;-91
2023/02/28 00:44:35;;;;;;;4.68;3.30;;;1.90;94.20;2.40;99780.00;;;;347239;28;83369;-91
2023/02/28 00:44:47;;;;;;;5.50;3.30;;;1.90;94.20;2.40;99775.00;;;;345358;28;90988;-90
2023/02/28 00:44:59;;;;;;;4.70;3.17;;;1.90;94.30;2.50;99782.00;;;;345995;28;84210;-90
2023/02/28 00:45:11;;;;;;;4.00;3.08;;;1.90;94.30;2.40;99781.00;;;;347009;28;91591;-91
2023/02/28 00:45:23;;;;;;;4.40;3.10;;;1.90;94.30;2.50;99778.00;;;;346135;28;83296;-91
2023/02/28 00:45:35;;;;;;;5.53;3.55;;;1.90;94.30;2.40;99772.00;;;;345564;28;90889;-91
2023/02/28 00:45:47;;;;;;;5.30;3.67;;;1.90;94.20;2.40;99774.00;;;;344417;28;83407;-91
2023/02/28 00:45:59;;;;;;;4.38;3.40;;;1.90;94.20;2.30;99777.00;;;;345773;28;88126;-90
2023/02/28 00:46:11;;;;;;;5.04;3.34;;;1.90;94.20;2.30;99775.00;;;;345984;28;84557;-91
2023/02/28 00:46:23;;;;;;;5.90;3.53;;;1.90;94.20;2.20;99778.00;;;;345552;28;89207;-91
2023/02/28 00:46:35;;;;;;;5.57;3.72;;;1.90;94.20;2.20;99779.00;;;;348629;27;83501;-91
2023/02/28 00:46:47;;;;;;;5.68;3.60;;;1.90;94.20;2.20;99790.00;;;;345572;28;89802;-91
2023/02/28 00:47:00;;;;;;;4.60;3.38;;;1.90;94.20;2.20;99775.00;;;;347729;28;83672;-91
2023/02/28 00:47:11;;;;;;;4.75;3.65;;;1.90;94.30;2.20;99776.00;;;;347250;28;91303;-91
2023/02/28 00:47:23;;;;;;;5.80;3.70;;;1.80;94.30;2.20;99783.00;;;;348899;27;84374;-90
2023/02/28 00:47:36;;;;;;;6.05;3.53;;;1.80;94.30;2.20;99778.00;;;;345831;28;89929;-91
2023/02/28 00:47:49;;;;;;;5.43;3.67;;;1.80;94.30;2.30;99774.00;;;;347752;28;82596;-91
2023/02/28 00:48:02;;;;;;;5.32;3.45;;;1.80;94.30;2.40;99771.00;;;;347263;28;90812;-90
2023/02/28 00:48:14;;;;;;;4.57;3.13;;;1.80;94.30;2.40;99775.00;;;;344942;28;84222;-91
2023/02/28 00:48:26;;;;;;;4.97;3.20;;;1.80;94.40;2.40;99772.00;;;;344637;28;90399;-91
2023/02/28 00:48:38;;;;;;;4.68;3.30;;;1.90;94.30;2.40;99771.00;;;;346415;28;85357;-91
2023/02/28 00:48:50;;;;;;;4.75;3.20;;;1.90;94.30;2.50;99775.00;;;;346001;28;91952;-90
2023/02/28 00:49:02;;;;;;;4.80;3.28;;;1.90;94.30;2.40;99777.00;;;;345196;28;85811;-91
2023/02/28 00:49:13;;;;;;;5.18;3.64;;;1.80;94.30;2.20;99782.00;;;;346103;28;93504;-90
2023/02/28 00:49:26;;;;;;;5.14;3.72;;;1.80;94.30;2.20;99788.00;;;;346109;28;82816;-91
2023/02/28 00:49:38;;;;;;;5.13;3.38;;;1.80;94.30;2.30;99774.00;;;;344656;28;89842;-91
2023/02/28 00:49:50;;;;;;;5.05;3.38;;;1.80;94.30;2.20;99782.00;;;;348040;28;83829;-90
2023/02/28 00:50:02;;;;;;;4.95;3.42;;;1.80;94.40;2.20;99774.00;;;;347300;28;90440;-91
2023/02/28 00:50:16;;;;;;;4.38;3.47;;;1.80;94.50;2.30;99775.00;;;;346240;28;85117;-91
2023/02/28 00:50:29;;;;;;;5.18;3.30;;;1.80;94.40;2.30;99772.00;;;;345776;28;90969;-91
2023/02/28 00:50:41;;;;;;;5.07;3.22;;;1.80;94.40;2.20;99779.00;;;;348735;27;83445;-90
2023/02/28 00:50:53;;;;;;;5.00;3.35;;;1.80;94.40;2.20;99775.00;;;;346092;28;91127;-91
2023/02/28 00:51:05;;;;;;;5.28;3.83;;;1.80;94.40;2.30;99776.00;;;;346359;28;82578;-91
2023/02/28 00:51:17;;;;;;;4.78;3.53;;;1.80;94.40;2.30;99786.00;;;;344743;28;90807;-90
2023/02/28 00:51:29;;;;;;;4.40;3.20;;;1.80;94.50;2.40;99776.00;;;;345080;28;83758;-91
2023/02/28 00:51:42;;;;;;;4.55;3.00;;;1.80;94.50;2.20;99776.00;;;;347362;28;89819;-90
2023/02/28 00:51:54;;;;;;;4.53;3.00;;;1.80;94.40;2.20;99788.00;;;;346325;28;82541;-90
2023/02/28 00:52:06;;;;;;;5.53;3.65;;;1.80;94.40;2.20;99779.00;;;;344253;28;89738;-91
2023/02/28 00:52:18;;;;;;;5.55;3.67;;;1.80;94.40;2.30;99774.00;;;;345716;28;82659;-91
2023/02/28 00:52:30;;;;;;;4.90;3.75;;;1.70;94.40;2.30;99789.00;;;;347065;28;92067;-90
2023/02/28 00:52:42;;;;;;;4.43;3.47;;;1.80;94.40;2.30;99777.00;;;;347572;28;83415;-91
2023/02/28 00:52:54;;;;;;;4.75;3.58;;;1.80;94.40;2.40;99775.00;;;;347033;28;91695;-90
2023/02/28 00:53:06;;;;;;;5.47;3.38;;;1.80;94.40;2.50;99782.00;;;;346590;28;82365;-91
2023/02/28 00:53:18;;;;;;;6.13;3.20;;;1.80;94.40;2.40;99772.00;;;;346005;28;89435;-91
2023/02/28 00:53:32;;;;;;;5.53;3.10;;;1.80;94.40;2.20;99767.00;;;;346304;28;83361;-91
2023/02/28 00:53:44;;;;;;;5.13;3.45;;;1.80;94.40;2.30;99784.00;;;;345839;28;90534;-91
2023/02/28 00:53:56;;;;;;;5.93;3.97;;;1.80;94.40;2.20;99778.00;;;;345957;28;83515;-90
2023/02/28 00:54:08;;;;;;;5.97;3.63;;;1.80;94.40;2.20;99787.00;;;;348502;27;92386;-91
2023/02/28 00:54:20;;;;;;;5.80;3.45;;;1.70;94.40;2.30;99787.00;;;;349124;27;83112;-90
2023/02/28 00:54:32;;;;;;;5.38;3.58;;;1.70;94.40;2.30;99776.00;;;;347403;28;90771;-91
2023/02/28 00:54:43;;;;;;;5.10;3.53;;;1.70;94.40;2.30;99786.00;;;;346096;28;83479;-91
2023/02/28 00:54:56;;;;;;;5.72;3.65;;;1.80;94.50;2.30;99783.00;;;;346858;28;88338;-91
2023/02/28 00:55:08;;;;;;;5.75;3.45;;;1.70;94.40;2.30;99774.00;;;;345916;28;83957;-90
2023/02/28 00:55:20;;;;;;;5.82;3.17;;;1.80;94.50;2.40;99786.00;;;;342670;28;91813;-91
2023/02/28 00:55:32;;;;;;;5.20;3.47;;;1.80;94.50;2.40;99775.00;;;;342896;28;84783;-91
2023/02/28 00:55:43;;;;;;;5.30;3.78;;;1.80;94.60;2.40;99778.00;;;;345514;28;89814;-91
2023/02/28 00:55:55;;;;;;;5.05;3.90;;;1.80;94.50;2.40;99775.00;;;;344509;28;83580;-91
2023/02/28 00:56:07;;;;;;;4.32;3.58;;;1.80;94.50;2.40;99788.00;;;;344102;28;91380;-90
2023/02/28 00:56:19;;;;;;;4.53;3.50;;;1.80;94.50;2.40;99783.00;;;;344843;28;84776;-90
2023/02/28 00:56:31;;;;;;;4.70;3.58;;;1.80;94.40;2.50;99777.00;;;;347345;28;92354;-90
2023/02/28 00:56:45;;;;;;;5.57;3.80;;;1.80;94.40;2.60;99777.00;;;;347707;28;83521;-93
2023/02/28 00:56:58;;;;;;;5.18;4.05;;;1.80;94.50;2.30;99777.00;;;;348322;27;89525;-91
2023/02/28 00:57:10;;;;;;;5.05;3.83;;;1.80;94.40;2.30;99787.00;;;;345886;28;84515;-91